Time;durP1;ratioP1;P1;durP2;ratioP2;P2;SDS_P1;SDS_P2;PMS_P1;PMS_P2;Temp;Humidity;BMP_temperature;BMP_pressure;BME280_temperature;BME280_humidity;BME280_pressure;Samples;Min_cycle;Max_cycle;Signal;HPM_P1;HPM_P2
2022/11/11 00:00:09;;;;;;;28.42;5.63;;;;;;;17.50;64.75;101800.88;4942274;28;119656;-73
2022/11/11 00:02:55;;;;;;;24.77;5.33;;;;;;;17.52;64.55;101795.66;4938453;28;120277;-73
2022/11/11 00:05:46;;;;;;;24.38;5.30;;;;;;;17.50;64.62;101823.84;4944967;28;119697;-72
2022/11/11 00:08:31;;;;;;;26.92;5.35;;;;;;;17.50;64.63;101811.97;4943150;28;120146;-73
2022/11/11 00:11:16;;;;;;;28.83;5.78;;;;;;;17.53;64.54;101818.63;4939985;28;119929;-72
2022/11/11 00:14:00;;;;;;;26.33;5.33;;;;;;;17.50;64.80;101814.75;4942978;28;119511;-73
2022/11/11 00:26:00;;;;;;;26.90;5.35;;;;;;;17.46;64.95;101830.81;4941905;28;119824;-72
2022/11/11 00:28:45;;;;;;;27.45;5.57;;;;;;;17.47;64.78;101829.56;4946477;28;120089;-72
2022/11/11 00:31:29;;;;;;;24.40;5.70;;;;;;;17.44;64.46;101831.28;4939798;28;120147;-73
2022/11/11 00:34:14;;;;;;;24.55;5.43;;;;;;;17.44;64.64;101847.16;4940143;28;120279;-72
2022/11/11 00:36:58;;;;;;;24.57;5.23;;;;;;;17.46;64.95;101841.91;4941009;28;120952;-73
2022/11/11 00:39:44;;;;;;;24.27;5.38;;;;;;;17.49;64.74;101852.81;4955049;28;119635;-73
2022/11/11 00:42:28;;;;;;;25.80;5.47;;;;;;;17.51;64.62;101844.06;4944361;28;120222;-72
2022/11/11 00:45:13;;;;;;;30.05;5.82;;;;;;;17.52;64.45;101847.59;4941541;28;120971;-73
2022/11/11 00:51:00;;;;;;;29.10;5.53;;;;;;;17.50;64.48;101817.53;4942609;28;119940;-74
2022/11/11 00:53:45;;;;;;;25.40;5.70;;;;;;;17.48;64.63;101798.59;4946479;28;120169;-73
2022/11/11 00:56:30;;;;;;;28.17;6.00;;;;;;;17.47;64.52;101804.59;4940046;28;119613;-73
2022/11/11 00:59:14;;;;;;;26.47;5.77;;;;;;;17.45;64.58;101793.97;4940280;28;120369;-73
2022/11/11 01:01:59;;;;;;;24.98;5.70;;;;;;;17.47;64.36;101785.19;4941350;28;120015;-73
2022/11/11 01:04:43;;;;;;;25.48;5.60;;;;;;;17.45;64.63;101796.00;4939731;28;120360;-73
2022/11/11 01:07:27;;;;;;;27.88;6.10;;;;;;;17.42;64.54;101788.63;4941712;28;120360;-73
2022/11/11 01:10:11;;;;;;;26.17;5.60;;;;;;;17.44;64.46;101788.91;4939495;28;120110;-73
2022/11/11 01:13:10;;;;;;;25.80;5.53;;;;;;;17.44;64.77;101788.91;4944216;28;120000;-73
2022/11/11 01:16:06;;;;;;;26.53;5.77;;;;;;;17.44;64.79;101800.78;4940979;28;119780;-73
2022/11/11 01:18:52;;;;;;;27.33;5.85;;;;;;;17.46;64.98;101786.44;4948551;28;119539;-72
2022/11/11 01:21:36;;;;;;;27.55;5.90;;;;;;;17.44;64.56;101786.13;4938272;28;120170;-73
2022/11/11 01:24:20;;;;;;;29.55;6.30;;;;;;;17.44;64.86;101761.16;4940672;28;120440;-72
2022/11/11 01:27:05;;;;;;;24.13;5.57;;;;;;;17.41;64.62;101781.53;4943547;28;119549;-73
2022/11/11 01:29:49;;;;;;;26.60;5.95;;;;;;;17.33;64.64;101774.81;4942635;28;119990;-72
2022/11/11 01:32:37;;;;;;;28.42;6.05;;;;;;;17.43;64.77;101777.03;4942203;28;120317;-73
2022/11/11 01:35:21;;;;;;;25.42;6.10;;;;;;;17.43;64.90;101785.38;4942778;28;119585;-72
2022/11/11 01:38:07;;;;;;;28.02;5.80;;;;;;;17.44;64.61;101795.22;4942918;28;120162;-73
2022/11/11 01:40:51;;;;;;;24.48;5.60;;;;;;;17.44;64.83;101791.69;4940040;28;120509;-73
2022/11/11 01:43:35;;;;;;;24.20;5.38;;;;;;;17.45;64.51;101810.63;4945081;28;120500;-72
2022/11/11 01:46:36;;;;;;;26.87;6.00;;;;;;;17.50;64.71;101811.97;4943338;28;120053;-73
2022/11/11 01:49:35;;;;;;;26.65;5.88;;;;;;;17.51;64.59;101783.03;4940854;28;119552;-72
2022/11/11 01:52:37;;;;;;;25.30;5.90;;;;;;;17.50;64.68;101807.19;4942694;28;120017;-73
2022/11/11 01:55:24;;;;;;;23.58;5.75;;;;;;;17.50;64.79;101809.22;4942361;28;119721;-72
2022/11/11 01:58:13;;;;;;;33.28;6.25;;;;;;;17.52;64.36;101809.53;4943249;28;120209;-73
2022/11/11 02:00:59;;;;;;;29.87;6.23;;;;;;;17.50;64.62;101809.97;4942321;28;120540;-72
2022/11/11 02:05:41;;;;;;;27.17;5.75;;;;;;;17.51;64.58;101824.63;4943264;28;120253;-72
2022/11/11 02:06:55;;;;;;;29.25;6.70;;;;;;;17.49;64.40;101811.22;4937366;28;119341;-73
2022/11/11 02:09:44;;;;;;;28.45;6.07;;;;;;;17.45;64.76;101799.53;4946984;28;120141;-73
2022/11/11 02:15:32;;;;;;;29.45;6.55;;;;;;;17.46;64.46;101800.28;4939356;28;121051;-73
2022/11/11 02:18:16;;;;;;;29.42;6.50;;;;;;;17.46;64.52;101811.38;4941258;28;120474;-73
2022/11/11 02:21:02;;;;;;;24.40;5.70;;;;;;;17.45;64.75;101816.16;4941436;28;119943;-73
2022/11/11 02:24:03;;;;;;;28.25;6.28;;;;;;;17.43;64.56;101824.19;4943324;28;120059;-73
2022/11/11 02:26:51;;;;;;;27.45;6.30;;;;;;;17.38;64.92;101816.53;4944329;28;119488;-72
2022/11/11 02:29:36;;;;;;;25.50;5.93;;;;;;;17.39;64.80;101822.84;4944789;28;120310;-73
2022/11/11 02:32:20;;;;;;;29.25;6.40;;;;;;;17.38;64.62;101808.22;4945134;28;120230;-72
2022/11/11 02:35:33;;;;;;;28.23;6.30;;;;;;;17.40;64.92;101835.47;4948164;28;120989;-72
2022/11/11 02:38:18;;;;;;;27.03;6.20;;;;;;;17.39;64.81;101823.59;4945662;28;120167;-72
2022/11/11 02:44:06;;;;;;;29.52;6.22;;;;;;;17.39;64.80;101826.38;4944275;28;120308;-73
2022/11/11 02:46:50;;;;;;;28.67;6.60;;;;;;;17.38;65.07;101829.63;4944797;28;119721;-73
2022/11/11 02:49:35;;;;;;;29.58;6.57;;;;;;;17.36;65.21;101827.31;4942428;28;120182;-72
2022/11/11 02:52:19;;;;;;;27.43;6.13;;;;;;;17.36;65.20;101823.78;4943913;28;120622;-73
2022/11/11 02:55:15;;;;;;;38.03;7.18;;;;;;;17.40;64.95;101827.16;4934680;28;120157;-72
2022/11/11 02:58:00;;;;;;;30.33;6.88;;;;;;;17.36;64.88;101813.47;4960572;28;119822;-72
2022/11/11 03:00:44;;;;;;;29.70;6.68;;;;;;;17.43;64.92;101826.22;4944794;28;120547;-72
2022/11/11 03:03:29;;;;;;;26.90;6.43;;;;;;;17.42;64.75;101821.91;4944836;28;120241;-73
2022/11/11 03:06:13;;;;;;;31.10;6.85;;;;;;;17.41;64.81;101818.34;4944974;28;119547;-73
2022/11/11 03:08:58;;;;;;;30.58;6.60;;;;;;;17.38;65.18;101813.00;4945643;28;120494;-73
2022/11/11 03:11:44;;;;;;;25.67;6.28;;;;;;;17.43;65.18;101823.44;4944999;28;120115;-72
2022/11/11 03:14:29;;;;;;;31.08;6.18;;;;;;;17.43;65.39;101823.44;4942752;28;119764;-73
2022/11/11 03:17:38;;;;;;;29.77;6.83;;;;;;;17.46;64.95;101831.56;4942328;28;119538;-73
2022/11/11 03:23:25;;;;;;;26.37;5.97;;;;;;;17.51;64.90;101824.63;4948884;28;119904;-73
2022/11/11 03:26:10;;;;;;;31.15;6.93;;;;;;;17.51;64.85;101813.53;4944816;28;119427;-72
2022/11/11 03:28:55;;;;;;;30.98;6.70;;;;;;;17.49;64.87;101833.41;4945170;28;119683;-72
2022/11/11 03:31:40;;;;;;;27.77;6.85;;;;;;;17.50;64.78;101823.84;4943120;28;120563;-73
2022/11/11 03:34:24;;;;;;;27.13;6.40;;;;;;;17.49;65.23;101824.31;4945367;28;119922;-73
2022/11/11 03:40:13;;;;;;;30.17;7.05;;;;;;;17.52;64.96;101834.50;4934669;28;120579;-72
2022/11/11 03:42:58;;;;;;;25.38;6.28;;;;;;;17.52;65.00;101837.28;4943149;28;120123;-73
2022/11/11 03:45:43;;;;;;;25.60;6.55;;;;;;;17.53;65.30;101835.25;4938694;28;119502;-73
2022/11/11 03:48:30;;;;;;;28.27;7.00;;;;;;;17.52;64.74;101834.50;4940377;28;119808;-72
2022/11/11 03:51:14;;;;;;;26.67;6.25;;;;;;;17.49;64.91;101832.63;4943654;28;120086;-72
2022/11/11 03:54:18;;;;;;;26.75;6.88;;;;;;;17.47;64.57;101840.66;4931465;28;120581;-73
2022/11/11 04:00:07;;;;;;;29.45;7.60;;;;;;;17.46;64.87;101828.81;4936360;28;120027;-73
2022/11/11 04:12:22;;;;;;;31.13;8.05;;;;;;;17.42;65.10;101838.53;4937187;28;120390;-72
2022/11/11 04:18:10;;;;;;;29.23;8.23;;;;;;;17.41;65.18;101832.22;4939206;28;119605;-73
2022/11/11 04:23:57;;;;;;;32.63;9.05;;;;;;;17.35;65.15;101833.34;4943871;28;120415;-72
2022/11/11 04:26:42;;;;;;;27.47;8.43;;;;;;;17.35;65.38;101834.13;4942516;28;119753;-73
2022/11/11 04:29:56;;;;;;;29.83;9.27;;;;;;;17.34;65.44;101829.81;4881076;28;119871;-73
2022/11/11 04:32:42;;;;;;;58.22;25.88;;;;;;;17.33;65.74;101833.03;4891957;28;120168;-72
2022/11/11 04:35:26;;;;;;;31.13;9.27;;;;;;;17.34;65.43;101827.03;4938258;28;119947;-73
2022/11/11 04:41:16;;;;;;;39.03;12.25;;;;;;;17.23;65.71;101821.22;4943715;28;120779;-73
2022/11/11 04:47:04;;;;;;;32.35;10.23;;;;;;;17.32;66.01;101845.38;4938994;28;119643;-72
2022/11/11 04:49:48;;;;;;;32.47;9.43;;;;;;;17.32;65.71;101839.84;4938865;28;120301;-74
2022/11/11 04:52:33;;;;;;;34.57;9.77;;;;;;;17.33;65.73;101846.91;4938927;28;120132;-73
2022/11/11 04:58:24;;;;;;;35.13;9.93;;;;;;;17.29;66.02;101836.00;4941132;28;120355;-72
2022/11/11 05:01:09;;;;;;;36.00;10.17;;;;;;;17.27;65.95;101832.13;4939276;28;120864;-73
2022/11/11 05:03:53;;;;;;;36.17;10.60;;;;;;;17.30;66.23;101828.44;4938588;28;119913;-72
2022/11/11 05:09:40;;;;;;;67.03;30.00;;;;;;;17.29;66.04;101835.22;4939238;28;120412;-72
2022/11/11 05:12:24;;;;;;;65.95;24.70;;;;;;;17.32;65.97;101842.59;4935020;28;121593;-73
2022/11/11 05:21:34;;;;;;;30.88;9.68;;;;;;;17.34;66.10;101851.22;4944595;28;120334;-73
2022/11/11 05:27:22;;;;;;;34.85;10.05;;;;;;;17.34;66.12;101859.53;4949344;28;119648;-73
2022/11/11 05:30:08;;;;;;;42.25;9.98;;;;;;;17.36;66.11;101857.06;4947812;28;120329;-72
2022/11/11 05:32:54;;;;;;;31.83;9.27;;;;;;;17.41;65.92;101876.59;4944188;28;120882;-73
2022/11/11 05:35:41;;;;;;;34.30;9.68;;;;;;;17.39;66.13;101878.31;4940855;28;119681;-72
2022/11/11 05:38:25;;;;;;;34.65;9.90;;;;;;;17.37;66.17;101866.91;4950337;28;120053;-73
2022/11/11 05:41:09;;;;;;;34.20;9.43;;;;;;;17.38;65.94;101865.69;4942644;28;119409;-73
2022/11/11 05:43:54;;;;;;;37.80;10.23;;;;;;;17.39;66.05;101870.00;4947518;28;119949;-73
2022/11/11 05:46:38;;;;;;;31.75;9.85;;;;;;;17.41;65.87;101873.81;4944869;28;119746;-73
2022/11/11 05:49:24;;;;;;;35.47;9.40;;;;;;;17.41;65.79;101868.28;4942759;28;120258;-73
2022/11/11 05:52:13;;;;;;;35.03;9.38;;;;;;;17.42;66.05;101872.59;4940334;28;120160;-72
2022/11/11 05:54:57;;;;;;;38.75;9.88;;;;;;;17.42;66.08;101871.81;4944496;28;120100;-73
2022/11/11 05:57:41;;;;;;;30.58;9.15;;;;;;;17.41;66.23;101864.75;4943075;28;120006;-73
2022/11/11 06:00:27;;;;;;;32.27;8.90;;;;;;;17.42;66.01;101871.81;4945461;28;120236;-72
2022/11/11 06:03:11;;;;;;;39.63;9.90;;;;;;;17.40;65.99;101866.75;4942489;28;119944;-72
2022/11/11 06:05:56;;;;;;;33.72;8.95;;;;;;;17.39;66.21;101876.31;4942326;28;119975;-72
2022/11/11 06:08:40;;;;;;;31.80;8.83;;;;;;;17.41;66.13;101867.50;4940871;28;119089;-73
2022/11/11 06:11:26;;;;;;;33.60;9.33;;;;;;;17.41;66.16;101870.28;4945868;28;119985;-73
2022/11/11 06:14:11;;;;;;;29.10;9.02;;;;;;;17.40;66.17;101869.53;4946098;28;119624;-72
2022/11/11 06:16:55;;;;;;;32.03;8.73;;;;;;;17.42;66.11;101871.81;4943758;28;120033;-72
2022/11/11 06:19:39;;;;;;;36.90;9.77;;;;;;;17.44;65.83;101883.22;4949794;28;120810;-72
2022/11/11 06:22:55;;;;;;;31.80;8.73;;;;;;;17.42;66.05;101883.69;4945812;28;119577;-73
2022/11/11 06:28:55;;;;;;;33.10;9.13;;;;;;;17.44;66.11;101892.31;4924011;28;120291;-73
2022/11/11 06:31:39;;;;;;;37.58;9.45;;;;;;;17.47;66.05;101890.59;4939839;28;120498;-73
2022/11/11 06:34:24;;;;;;;36.20;9.10;;;;;;;17.46;66.07;101894.59;4942246;28;120396;-72
2022/11/11 06:37:08;;;;;;;33.93;8.87;;;;;;;17.48;66.22;101892.13;4944705;28;120786;-72
2022/11/11 06:39:53;;;;;;;32.22;8.88;;;;;;;17.48;66.19;101898.44;4935919;28;120245;-73
2022/11/11 06:42:37;;;;;;;35.30;8.95;;;;;;;17.45;65.99;101909.72;4943689;28;120217;-73
2022/11/11 06:45:26;;;;;;;34.20;8.88;;;;;;;17.47;66.05;101923.88;4942547;28;120066;-73
2022/11/11 06:48:11;;;;;;;34.08;9.38;;;;;;;17.45;66.22;101927.13;4939730;28;120090;-72
2022/11/11 06:51:01;;;;;;;30.60;8.88;;;;;;;17.47;66.22;101912.78;4944641;28;119676;-72
2022/11/11 06:53:45;;;;;;;35.85;8.65;;;;;;;17.46;66.32;101928.66;4942378;28;120010;-73
2022/11/11 06:56:29;;;;;;;31.23;8.90;;;;;;;17.50;66.38;101920.94;4944182;28;119580;-73
2022/11/11 06:59:14;;;;;;;28.98;8.73;;;;;;;17.50;66.17;101928.50;4946170;28;120045;-73
2022/11/11 07:01:58;;;;;;;35.50;9.45;;;;;;;17.52;66.18;101931.59;4942188;28;120085;-73
2022/11/11 07:04:43;;;;;;;33.65;8.60;;;;;;;17.46;65.93;101936.22;4943775;28;120169;-73
2022/11/11 07:07:27;;;;;;;35.13;8.87;;;;;;;17.49;66.42;101943.59;4939812;28;120373;-72
2022/11/11 07:10:16;;;;;;;31.80;8.52;;;;;;;17.51;66.38;101943.94;4945764;28;119620;-72
2022/11/11 07:13:01;;;;;;;33.15;8.95;;;;;;;17.53;66.18;101933.13;4943475;28;120227;-73
2022/11/11 07:15:50;;;;;;;33.13;8.57;;;;;;;17.50;66.22;101934.81;4943321;28;120273;-73
2022/11/11 07:18:35;;;;;;;33.97;9.13;;;;;;;17.45;66.26;101948.56;4942153;28;121110;-72
2022/11/11 07:21:19;;;;;;;33.90;8.80;;;;;;;17.48;66.34;101940.06;4942617;28;120310;-72
2022/11/11 07:24:03;;;;;;;32.45;9.00;;;;;;;17.50;66.05;101945.13;4943096;28;120504;-73
2022/11/11 07:26:48;;;;;;;32.67;8.70;;;;;;;17.51;66.33;101949.47;4943554;28;119622;-73
2022/11/11 07:29:32;;;;;;;29.15;8.32;;;;;;;17.50;66.22;101945.91;4940122;28;120006;-73
2022/11/11 07:32:16;;;;;;;30.35;8.98;;;;;;;17.49;66.18;101949.91;4939098;28;120459;-73
2022/11/11 07:35:01;;;;;;;35.22;9.50;;;;;;;17.52;66.32;101956.56;4945511;28;120338;-73
2022/11/11 07:38:09;;;;;;;30.58;9.60;;;;;;;17.48;66.33;101953.94;4942304;28;119757;-73
2022/11/11 07:40:53;;;;;;;31.88;9.20;;;;;;;17.50;66.37;101959.00;4945759;28;119663;-73
2022/11/11 07:43:37;;;;;;;32.30;9.50;;;;;;;17.51;66.15;101963.34;4944538;28;120799;-73
2022/11/11 07:46:22;;;;;;;30.60;9.38;;;;;;;17.50;66.38;101978.41;4940554;28;120063;-73
2022/11/11 07:49:06;;;;;;;33.83;9.67;;;;;;;17.50;66.26;101967.31;4944685;28;119951;-73
2022/11/11 07:51:50;;;;;;;34.00;9.20;;;;;;;17.53;66.22;101971.97;4942477;28;120637;-72
2022/11/11 07:54:34;;;;;;;32.33;9.88;;;;;;;17.51;66.21;101985.53;4943270;28;120422;-73
2022/11/11 07:57:19;;;;;;;32.00;9.67;;;;;;;17.47;66.05;101968.25;4943103;28;119829;-74
2022/11/11 08:00:04;;;;;;;33.65;9.68;;;;;;;17.48;66.05;101976.13;4944159;28;119738;-75
2022/11/11 08:02:49;;;;;;;31.30;10.00;;;;;;;17.49;66.00;101971.34;4941232;28;119923;-75
2022/11/11 08:05:33;;;;;;;34.55;11.35;;;;;;;17.51;66.31;101980.00;4932700;28;120638;-72
2022/11/11 08:08:23;;;;;;;36.77;11.43;;;;;;;17.49;66.04;101982.44;4935205;28;120207;-73
2022/11/11 08:11:08;;;;;;;32.63;11.25;;;;;;;17.49;66.02;101994.28;4939727;28;120314;-73
2022/11/11 08:13:52;;;;;;;34.05;12.25;;;;;;;17.50;66.04;101984.75;4937218;28;120308;-73
2022/11/11 08:16:36;;;;;;;34.30;11.80;;;;;;;17.54;65.91;101983.84;4932620;28;120272;-75
2022/11/11 08:19:20;;;;;;;32.05;11.82;;;;;;;17.53;66.07;101987.84;4934012;28;120026;-72
2022/11/11 08:22:05;;;;;;;37.37;13.37;;;;;;;17.50;65.74;101993.06;4938307;28;120719;-72
2022/11/11 08:24:49;;;;;;;36.72;13.18;;;;;;;17.50;66.06;101995.84;4933118;28;119974;-73
2022/11/11 08:27:57;;;;;;;34.33;13.03;;;;;;;17.49;65.96;102001.84;4935182;28;120144;-73
2022/11/11 08:30:42;;;;;;;35.05;13.18;;;;;;;17.50;66.25;102000.63;4935092;28;120286;-72
2022/11/11 08:33:27;;;;;;;35.13;12.70;;;;;;;17.50;65.75;102011.72;4937061;28;119997;-73
2022/11/11 08:36:11;;;;;;;34.42;13.18;;;;;;;17.52;65.95;102002.94;4935110;28;120682;-73
2022/11/11 08:38:56;;;;;;;36.70;12.73;;;;;;;17.55;66.01;102013.88;4936072;28;120364;-72
2022/11/11 08:41:40;;;;;;;40.90;14.45;;;;;;;17.56;65.92;102017.41;4935681;28;120688;-73
2022/11/11 08:44:27;;;;;;;35.07;13.77;;;;;;;17.56;65.99;102028.53;4897695;28;121931;-72
2022/11/11 08:47:19;;;;;;;37.55;14.18;;;;;;;17.60;65.80;102043.00;4939079;28;120072;-73
2022/11/11 08:50:05;;;;;;;35.03;13.97;;;;;;;17.61;65.81;102038.97;4932264;28;121230;-73
2022/11/11 08:53:05;;;;;;;35.45;13.80;;;;;;;17.57;65.84;102049.47;4934295;28;119919;-73
2022/11/11 08:56:11;;;;;;;38.03;15.10;;;;;;;17.54;66.05;102045.63;4935308;28;120876;-75
2022/11/11 08:58:55;;;;;;;36.60;14.00;;;;;;;17.55;66.00;102051.94;4932011;28;120501;-75
2022/11/11 09:01:40;;;;;;;33.97;14.33;;;;;;;17.58;66.12;102056.56;4936483;28;121591;-75
2022/11/11 09:04:24;;;;;;;33.73;14.37;;;;;;;17.56;66.07;102054.25;4930391;28;120131;-75
2022/11/11 09:07:11;;;;;;;39.93;15.80;;;;;;;17.58;65.55;102057.34;4915804;28;120056;-75
2022/11/11 09:09:55;;;;;;;40.35;16.45;;;;;;;17.58;65.56;102067.66;4932493;28;119633;-76
2022/11/11 09:12:39;;;;;;;35.97;15.70;;;;;;;17.58;65.93;102082.31;4937317;28;119579;-72
2022/11/11 09:15:25;;;;;;;38.77;17.00;;;;;;;17.60;65.98;102082.59;4935104;28;120488;-72
2022/11/11 09:18:09;;;;;;;35.80;16.50;;;;;;;17.57;65.62;102083.53;4928085;28;119696;-73
2022/11/11 09:20:57;;;;;;;42.15;17.30;;;;;;;17.59;65.67;102085.84;4931555;28;119708;-72
2022/11/11 09:23:42;;;;;;;38.45;16.90;;;;;;;17.59;65.80;102099.72;4933329;28;120653;-73
2022/11/11 09:26:26;;;;;;;37.97;17.50;;;;;;;17.57;65.43;102094.63;4929501;28;119672;-73
2022/11/11 09:29:10;;;;;;;38.90;17.50;;;;;;;17.58;66.00;102106.50;4932471;28;120142;-72
2022/11/11 09:32:04;;;;;;;41.87;16.90;;;;;;;17.58;65.89;102107.28;4932504;28;120274;-73
2022/11/11 09:34:49;;;;;;;39.70;17.17;;;;;;;17.55;65.72;102102.66;4932181;28;120734;-72
2022/11/11 09:37:33;;;;;;;38.58;17.52;;;;;;;17.59;65.75;102102.50;4924201;28;120972;-73
2022/11/11 09:40:21;;;;;;;41.88;17.55;;;;;;;17.58;65.71;102121.16;4933358;28;119899;-73
2022/11/11 09:43:30;;;;;;;41.30;16.27;;;;;;;17.59;65.58;102119.91;4933764;28;120056;-73
2022/11/11 09:46:32;;;;;;;33.83;15.93;;;;;;;17.58;65.45;102120.38;4932325;28;120515;-72
2022/11/11 09:49:32;;;;;;;37.38;17.75;;;;;;;17.60;65.69;102110.34;4932693;28;121088;-73
2022/11/11 09:52:25;;;;;;;40.53;18.37;;;;;;;17.65;65.59;102112.50;4931585;28;120365;-72
2022/11/11 09:55:24;;;;;;;37.08;18.65;;;;;;;17.67;65.47;102121.16;4931571;28;119903;-73
2022/11/11 09:58:23;;;;;;;43.08;19.42;;;;;;;17.68;65.45;102111.59;4932869;28;119978;-73
2022/11/11 10:01:11;;;;;;;47.80;22.07;;;;;;;17.69;65.21;102124.22;4933720;28;120123;-73
2022/11/11 10:04:18;;;;;;;43.97;21.63;;;;;;;17.67;65.08;102118.38;4938745;28;120168;-73
2022/11/11 10:07:10;;;;;;;47.88;22.55;;;;;;;17.63;65.35;102128.84;4934616;28;119999;-73
2022/11/11 10:10:13;;;;;;;47.42;23.02;;;;;;;17.63;65.47;102134.41;4933268;28;119818;-73
2022/11/11 10:12:58;;;;;;;41.13;22.10;;;;;;;17.59;65.63;102121.91;4948536;28;120194;-73
2022/11/11 10:16:20;;;;;;;45.05;22.23;;;;;;;17.64;65.61;102124.06;4932347;28;119683;-73
2022/11/11 10:19:40;;;;;;;42.33;22.33;;;;;;;17.58;65.50;102123.16;4938602;28;120149;-72
2022/11/11 10:22:35;;;;;;;41.08;21.13;;;;;;;17.58;65.76;102128.69;4940790;28;119865;-73
2022/11/11 10:25:24;;;;;;;45.17;21.75;;;;;;;17.58;65.72;102123.91;4941858;28;120510;-73
2022/11/11 10:28:16;;;;;;;44.30;21.67;;;;;;;17.56;65.43;102120.06;4946616;28;119993;-72
2022/11/11 10:31:02;;;;;;;38.38;21.13;;;;;;;17.62;65.77;102129.31;4940753;28;119623;-73
2022/11/11 10:33:59;;;;;;;42.77;20.93;;;;;;;17.66;65.48;102133.47;4944341;28;120034;-73
2022/11/11 10:36:48;;;;;;;40.95;20.80;;;;;;;17.64;65.38;102135.94;4933799;28;120116;-73
2022/11/11 10:39:59;;;;;;;41.72;20.13;;;;;;;17.65;65.36;102136.69;4934667;28;120528;-72
2022/11/11 10:42:43;;;;;;;41.38;19.90;;;;;;;17.65;65.81;102150.56;4933572;28;120309;-73
2022/11/11 10:45:47;;;;;;;38.00;19.30;;;;;;;17.66;65.58;102152.88;4936966;28;119664;-73
2022/11/11 10:48:45;;;;;;;44.28;19.42;;;;;;;17.70;65.35;102152.75;4935130;28;120430;-73
2022/11/11 10:51:41;;;;;;;43.38;19.25;;;;;;;17.72;65.64;102155.84;4935783;28;120660;-72
2022/11/11 10:54:40;;;;;;;37.58;17.63;;;;;;;17.71;65.35;102149.50;4939091;28;120854;-73
2022/11/11 10:58:04;;;;;;;36.70;17.20;;;;;;;17.71;65.40;102151.53;4936072;28;120331;-76
2022/11/11 11:00:53;;;;;;;35.13;16.52;;;;;;;17.71;65.14;102157.06;4935099;28;120613;-72
2022/11/11 11:03:49;;;;;;;39.03;16.50;;;;;;;17.72;65.71;102151.06;4935180;28;120048;-72
2022/11/11 11:06:38;;;;;;;36.75;15.55;;;;;;;17.76;65.82;102156.47;4931097;28;120066;-72
2022/11/11 11:10:04;;;;;;;39.70;15.93;;;;;;;17.79;65.42;102161.09;4936342;28;120076;-72
2022/11/11 11:12:52;;;;;;;38.10;15.55;;;;;;;17.76;65.14;102162.78;4935676;28;119682;-72
2022/11/11 11:15:40;;;;;;;40.75;16.40;;;;;;;17.74;65.75;102158.91;4937200;28;120035;-72
2022/11/11 11:18:25;;;;;;;39.53;15.68;;;;;;;17.72;65.49;102162.16;4931614;28;120026;-73
2022/11/11 11:21:10;;;;;;;35.75;15.07;;;;;;;17.77;65.53;102167.09;4936616;28;120882;-72
2022/11/11 11:23:54;;;;;;;36.58;14.18;;;;;;;17.76;65.33;102167.56;4932345;28;120339;-73
2022/11/11 11:27:00;;;;;;;38.70;14.77;;;;;;;17.74;65.26;102162.50;4927730;28;120416;-75
2022/11/11 11:29:45;;;;;;;38.97;14.55;;;;;;;17.76;65.50;102162.78;4932345;28;120205;-73
2022/11/11 11:32:31;;;;;;;30.35;13.75;;;;;;;17.77;65.35;102164.31;4933708;28;119742;-73
2022/11/11 11:35:39;;;;;;;37.47;14.20;;;;;;;17.78;65.42;102171.41;4933631;28;119643;-75
2022/11/11 11:38:42;;;;;;;32.67;13.40;;;;;;;17.82;65.27;102171.25;4936156;28;120012;-75
2022/11/11 11:41:49;;;;;;;32.35;14.07;;;;;;;17.85;65.29;102175.09;4937226;28;119623;-75
2022/11/11 11:44:36;;;;;;;29.57;12.80;;;;;;;17.86;65.28;102171.84;4934018;28;120678;-72
2022/11/11 11:47:36;;;;;;;34.37;13.07;;;;;;;17.90;65.04;102177.25;4947642;28;120376;-73
2022/11/11 11:50:26;;;;;;;36.50;13.98;;;;;;;17.90;64.97;102177.25;4932316;28;120436;-72
2022/11/11 11:53:35;;;;;;;35.53;14.15;;;;;;;17.89;64.79;102170.16;4932997;28;119635;-73
2022/11/11 11:56:34;;;;;;;34.55;13.10;;;;;;;17.87;64.91;102172.63;4930816;28;120554;-72
2022/11/11 11:59:38;;;;;;;32.03;13.17;;;;;;;17.86;65.12;102171.84;4930432;28;120757;-73
2022/11/11 12:02:41;;;;;;;35.28;13.48;;;;;;;17.90;64.72;102177.25;4932399;28;119902;-73
2022/11/11 12:05:36;;;;;;;31.42;13.35;;;;;;;17.85;65.01;102175.09;4931971;28;120173;-72
2022/11/11 12:09:03;;;;;;;30.73;13.10;;;;;;;17.79;65.31;102178.50;4931590;28;122388;-73
2022/11/11 12:12:24;;;;;;;35.33;13.20;;;;;;;17.83;65.19;102183.13;4918420;28;120567;-73
2022/11/11 12:15:15;;;;;;;32.97;13.38;;;;;;;17.83;65.17;102186.69;4936624;28;120128;-72
2022/11/11 12:18:17;;;;;;;36.33;14.07;;;;;;;17.81;64.98;102175.25;4934811;28;120312;-73
2022/11/11 12:21:10;;;;;;;34.58;13.60;;;;;;;17.78;65.19;102185.28;4946616;28;121807;-72
2022/11/11 12:23:58;;;;;;;37.20;14.52;;;;;;;17.80;65.21;102179.28;4930107;28;120375;-72
2022/11/11 12:26:56;;;;;;;42.70;14.70;;;;;;;17.79;65.10;102180.50;4929532;28;120061;-73
2022/11/11 12:29:47;;;;;;;39.75;14.82;;;;;;;17.77;65.53;102183.00;4934338;28;120443;-73
2022/11/11 12:32:55;;;;;;;36.72;15.48;;;;;;;17.76;65.55;102187.00;4935084;28;119649;-73
2022/11/11 12:35:51;;;;;;;39.70;14.83;;;;;;;17.75;65.70;102188.22;4932093;28;120175;-72
2022/11/11 12:38:49;;;;;;;35.10;15.05;;;;;;;17.72;65.66;102189.13;4937347;28;119929;-72
2022/11/11 12:41:48;;;;;;;34.93;14.40;;;;;;;17.75;65.76;102194.56;4929511;28;120310;-72
2022/11/11 12:44:45;;;;;;;35.87;14.53;;;;;;;17.75;65.59;102189.00;4934005;28;120235;-72
2022/11/11 12:47:58;;;;;;;37.00;16.00;;;;;;;17.74;65.54;102186.66;4932509;28;119982;-72
2022/11/11 12:51:06;;;;;;;36.03;15.30;;;;;;;17.73;65.48;102177.56;4933081;28;120440;-72
2022/11/11 12:53:50;;;;;;;35.55;15.95;;;;;;;17.72;65.49;102167.69;4933919;28;120402;-73
2022/11/11 12:57:42;;;;;;;33.00;15.47;;;;;;;17.71;65.80;102180.03;4937827;28;120604;-73
2022/11/11 13:00:27;;;;;;;33.03;15.07;;;;;;;17.73;65.72;102168.47;4936918;28;120407;-72
2022/11/11 13:03:46;;;;;;;45.17;16.23;;;;;;;17.73;65.33;102180.34;4940164;28;119605;-72
2022/11/11 13:06:40;;;;;;;39.07;16.43;;;;;;;17.72;65.62;102183.59;4942554;28;120650;-73
2022/11/11 13:09:31;;;;;;;37.03;16.00;;;;;;;17.71;65.54;102185.59;4941823;28;120040;-72
2022/11/11 13:12:38;;;;;;;34.47;15.97;;;;;;;17.73;65.91;102191.44;4938084;28;120427;-72
2022/11/11 13:15:25;;;;;;;37.83;16.80;;;;;;;17.72;65.60;102189.91;4933857;28;120237;-72
2022/11/11 13:18:23;;;;;;;38.07;17.10;;;;;;;17.72;65.59;102189.91;4935943;28;120067;-74
2022/11/11 13:21:21;;;;;;;37.33;16.90;;;;;;;17.73;65.69;102202.53;4938177;28;120214;-73
2022/11/11 13:24:12;;;;;;;35.67;16.20;;;;;;;17.71;65.77;102199.47;4940812;28;120048;-73
2022/11/11 13:27:02;;;;;;;38.17;16.70;;;;;;;17.70;65.83;102197.94;4940298;28;119609;-73
2022/11/11 13:29:49;;;;;;;41.70;17.13;;;;;;;17.68;66.01;102200.41;4940077;28;119888;-73
2022/11/11 13:32:49;;;;;;;43.50;17.63;;;;;;;17.67;66.17;102198.84;4944079;28;120493;-72
2022/11/11 13:35:59;;;;;;;38.22;17.70;;;;;;;17.70;65.85;102203.47;4939217;28;120108;-73
2022/11/11 13:39:00;;;;;;;38.17;17.27;;;;;;;17.66;66.13;102208.38;4941212;28;120437;-73
2022/11/11 13:41:50;;;;;;;42.03;17.52;;;;;;;17.64;66.21;102205.31;4940025;28;119462;-73
2022/11/11 13:44:51;;;;;;;38.92;16.63;;;;;;;17.65;66.20;102203.31;4941376;28;120641;-73
2022/11/11 13:47:38;;;;;;;35.73;16.63;;;;;;;17.62;66.66;102207.00;4938844;28;119818;-72
2022/11/11 13:50:37;;;;;;;37.20;17.55;;;;;;;17.62;66.19;102207.78;4937998;28;120427;-73
2022/11/11 13:53:47;;;;;;;39.83;18.02;;;;;;;17.61;66.18;102203.47;4936982;28;120602;-73
2022/11/11 13:56:44;;;;;;;35.47;17.65;;;;;;;17.62;66.63;102205.00;4932976;28;119885;-72